sensor_id;sensor_type;location;lat;lon;timestamp;P1;durP1;ratioP1;P2;durP2;ratioP2
34242;SDS011;20504;43.214;27.920;2022-09-03T00:07:55;19.30;;;7.97;;
34242;SDS011;20504;43.214;27.920;2022-09-03T00:10:29;13.75;;;7.38;;
34242;SDS011;20504;43.214;27.920;2022-09-03T00:13:01;20.55;;;7.80;;
34242;SDS011;20504;43.214;27.920;2022-09-03T00:15:31;11.32;;;6.55;;
34242;SDS011;20504;43.214;27.920;2022-09-03T00:18:06;15.75;;;6.20;;
34242;SDS011;20504;43.214;27.920;2022-09-03T00:20:38;15.30;;;6.18;;
34242;SDS011;20504;43.214;27.920;2022-09-03T00:23:18;10.90;;;6.47;;
34242;SDS011;20504;43.214;27.920;2022-09-03T00:26:16;17.48;;;6.97;;
34242;SDS011;20504;43.214;27.920;2022-09-03T00:28:40;19.70;;;8.25;;
34242;SDS011;20504;43.214;27.920;2022-09-03T00:31:12;13.73;;;6.47;;
34242;SDS011;20504;43.214;27.920;2022-09-03T00:33:43;15.77;;;5.90;;
34242;SDS011;20504;43.214;27.920;2022-09-03T00:36:44;18.23;;;6.88;;
34242;SDS011;20504;43.214;27.920;2022-09-03T00:39:10;16.10;;;6.88;;
34242;SDS011;20504;43.214;27.920;2022-09-03T01:01:04;12.80;;;6.97;;
34242;SDS011;20504;43.214;27.920;2022-09-03T01:03:45;12.70;;;7.10;;
34242;SDS011;20504;43.214;27.920;2022-09-03T01:06:18;15.15;;;6.70;;
34242;SDS011;20504;43.214;27.920;2022-09-03T01:17:40;14.48;;;7.55;;
34242;SDS011;20504;43.214;27.920;2022-09-03T01:46:09;10.70;;;6.05;;
34242;SDS011;20504;43.214;27.920;2022-09-03T01:48:56;10.55;;;5.18;;
34242;SDS011;20504;43.214;27.920;2022-09-03T01:51:32;7.20;;;4.35;;
34242;SDS011;20504;43.214;27.920;2022-09-03T02:04:58;6.72;;;4.72;;
34242;SDS011;20504;43.214;27.920;2022-09-03T02:07:25;3.88;;;3.33;;
34242;SDS011;20504;43.214;27.920;2022-09-03T02:09:57;5.90;;;3.67;;
34242;SDS011;20504;43.214;27.920;2022-09-03T02:12:25;4.40;;;3.45;;
34242;SDS011;20504;43.214;27.920;2022-09-03T02:14:53;5.07;;;4.10;;
34242;SDS011;20504;43.214;27.920;2022-09-03T02:17:20;7.00;;;4.00;;
34242;SDS011;20504;43.214;27.920;2022-09-03T02:19:45;7.40;;;4.20;;
34242;SDS011;20504;43.214;27.920;2022-09-03T02:22:11;10.60;;;4.82;;
34242;SDS011;20504;43.214;27.920;2022-09-03T02:24:37;4.53;;;4.00;;
34242;SDS011;20504;43.214;27.920;2022-09-03T02:27:04;5.57;;;4.30;;
34242;SDS011;20504;43.214;27.920;2022-09-03T02:29:30;7.43;;;4.33;;
34242;SDS011;20504;43.214;27.920;2022-09-03T02:31:57;9.02;;;4.95;;
34242;SDS011;20504;43.214;27.920;2022-09-03T02:34:22;7.60;;;4.77;;
34242;SDS011;20504;43.214;27.920;2022-09-03T02:36:48;5.40;;;3.67;;
34242;SDS011;20504;43.214;27.920;2022-09-03T02:39:14;7.77;;;3.87;;
34242;SDS011;20504;43.214;27.920;2022-09-03T02:41:43;7.32;;;4.15;;
34242;SDS011;20504;43.214;27.920;2022-09-03T02:44:11;9.23;;;4.63;;
34242;SDS011;20504;43.214;27.920;2022-09-03T02:46:56;10.57;;;5.35;;
34242;SDS011;20504;43.214;27.920;2022-09-03T02:49:24;9.00;;;5.43;;
34242;SDS011;20504;43.214;27.920;2022-09-03T02:51:51;7.85;;;5.80;;
34242;SDS011;20504;43.214;27.920;2022-09-03T02:54:16;8.97;;;4.70;;
34242;SDS011;20504;43.214;27.920;2022-09-03T02:56:42;12.60;;;6.67;;
34242;SDS011;20504;43.214;27.920;2022-09-03T02:59:08;9.30;;;6.10;;
34242;SDS011;20504;43.214;27.920;2022-09-03T03:01:34;9.73;;;5.70;;
34242;SDS011;20504;43.214;27.920;2022-09-03T03:04:00;11.45;;;5.75;;
34242;SDS011;20504;43.214;27.920;2022-09-03T03:06:26;8.67;;;5.37;;
34242;SDS011;20504;43.214;27.920;2022-09-03T03:08:52;10.03;;;5.30;;
34242;SDS011;20504;43.214;27.920;2022-09-03T03:11:21;9.93;;;5.55;;
34242;SDS011;20504;43.214;27.920;2022-09-03T03:13:49;7.88;;;5.93;;
34242;SDS011;20504;43.214;27.920;2022-09-03T03:16:15;9.10;;;5.00;;
34242;SDS011;20504;43.214;27.920;2022-09-03T03:18:41;9.25;;;5.35;;
34242;SDS011;20504;43.214;27.920;2022-09-03T03:21:11;9.57;;;6.00;;
34242;SDS011;20504;43.214;27.920;2022-09-03T03:23:40;9.75;;;5.65;;
34242;SDS011;20504;43.214;27.920;2022-09-03T03:26:07;10.50;;;6.07;;
34242;SDS011;20504;43.214;27.920;2022-09-03T03:28:37;11.23;;;5.68;;
34242;SDS011;20504;43.214;27.920;2022-09-03T03:31:07;8.05;;;4.72;;
34242;SDS011;20504;43.214;27.920;2022-09-03T03:33:33;13.75;;;5.18;;
34242;SDS011;20504;43.214;27.920;2022-09-03T03:36:12;8.25;;;5.53;;
34242;SDS011;20504;43.214;27.920;2022-09-03T03:38:39;8.45;;;5.05;;
34242;SDS011;20504;43.214;27.920;2022-09-03T03:41:10;6.10;;;4.93;;
34242;SDS011;20504;43.214;27.920;2022-09-03T03:43:36;11.50;;;5.43;;
34242;SDS011;20504;43.214;27.920;2022-09-03T03:46:03;11.18;;;5.00;;
34242;SDS011;20504;43.214;27.920;2022-09-03T03:48:29;7.22;;;4.70;;
34242;SDS011;20504;43.214;27.920;2022-09-03T03:50:58;8.00;;;3.85;;
34242;SDS011;20504;43.214;27.920;2022-09-03T03:53:26;6.55;;;4.32;;
34242;SDS011;20504;43.214;27.920;2022-09-03T03:55:55;10.23;;;4.73;;
34242;SDS011;20504;43.214;27.920;2022-09-03T03:58:22;7.68;;;5.22;;
34242;SDS011;20504;43.214;27.920;2022-09-03T04:00:49;9.13;;;4.40;;
34242;SDS011;20504;43.214;27.920;2022-09-03T04:03:15;8.82;;;4.25;;
34242;SDS011;20504;43.214;27.920;2022-09-03T04:05:41;7.00;;;4.17;;
34242;SDS011;20504;43.214;27.920;2022-09-03T04:08:07;7.90;;;4.60;;
34242;SDS011;20504;43.214;27.920;2022-09-03T04:10:32;9.03;;;4.67;;
34242;SDS011;20504;43.214;27.920;2022-09-03T04:12:58;6.07;;;4.60;;
34242;SDS011;20504;43.214;27.920;2022-09-03T04:17:52;11.88;;;4.65;;
34242;SDS011;20504;43.214;27.920;2022-09-03T04:20:19;7.50;;;4.45;;
34242;SDS011;20504;43.214;27.920;2022-09-03T04:22:44;7.27;;;4.53;;
34242;SDS011;20504;43.214;27.920;2022-09-03T04:25:10;10.00;;;4.47;;
34242;SDS011;20504;43.214;27.920;2022-09-03T04:27:37;7.22;;;4.28;;
34242;SDS011;20504;43.214;27.920;2022-09-03T04:30:03;7.93;;;4.23;;
34242;SDS011;20504;43.214;27.920;2022-09-03T04:32:29;7.43;;;4.57;;
34242;SDS011;20504;43.214;27.920;2022-09-03T04:35:13;8.77;;;4.72;;
34242;SDS011;20504;43.214;27.920;2022-09-03T04:37:38;7.93;;;4.80;;
34242;SDS011;20504;43.214;27.920;2022-09-03T04:40:04;9.00;;;4.90;;
34242;SDS011;20504;43.214;27.920;2022-09-03T04:42:30;6.32;;;4.30;;
34242;SDS011;20504;43.214;27.920;2022-09-03T04:44:55;7.67;;;4.40;;
34242;SDS011;20504;43.214;27.920;2022-09-03T04:47:21;6.87;;;4.20;;
34242;SDS011;20504;43.214;27.920;2022-09-03T04:49:46;10.20;;;4.87;;
34242;SDS011;20504;43.214;27.920;2022-09-03T04:52:12;8.73;;;5.10;;
34242;SDS011;20504;43.214;27.920;2022-09-03T04:54:38;6.30;;;4.63;;
34242;SDS011;20504;43.214;27.920;2022-09-03T04:57:03;6.47;;;5.03;;
34242;SDS011;20504;43.214;27.920;2022-09-03T04:59:30;6.70;;;5.28;;
34242;SDS011;20504;43.214;27.920;2022-09-03T05:01:55;8.57;;;5.37;;
34242;SDS011;20504;43.214;27.920;2022-09-03T05:04:21;12.20;;;5.70;;
34242;SDS011;20504;43.214;27.920;2022-09-03T05:06:46;8.03;;;5.13;;
34242;SDS011;20504;43.214;27.920;2022-09-03T05:09:12;9.27;;;5.53;;
34242;SDS011;20504;43.214;27.920;2022-09-03T05:11:37;6.80;;;5.27;;
34242;SDS011;20504;43.214;27.920;2022-09-03T05:14:03;7.73;;;5.43;;
34242;SDS011;20504;43.214;27.920;2022-09-03T05:16:30;7.85;;;6.00;;
34242;SDS011;20504;43.214;27.920;2022-09-03T05:18:57;6.88;;;5.05;;
34242;SDS011;20504;43.214;27.920;2022-09-03T05:21:24;7.22;;;5.53;;
34242;SDS011;20504;43.214;27.920;2022-09-03T05:23:50;13.38;;;7.13;;
34242;SDS011;20504;43.214;27.920;2022-09-03T05:26:24;14.95;;;7.13;;
34242;SDS011;20504;43.214;27.920;2022-09-03T05:29:00;15.85;;;7.28;;
34242;SDS011;20504;43.214;27.920;2022-09-03T05:31:29;13.48;;;9.15;;
34242;SDS011;20504;43.214;27.920;2022-09-03T05:33:56;15.43;;;6.90;;
34242;SDS011;20504;43.214;27.920;2022-09-03T05:36:24;9.75;;;6.50;;
34242;SDS011;20504;43.214;27.920;2022-09-03T05:38:51;22.08;;;7.65;;
34242;SDS011;20504;43.214;27.920;2022-09-03T05:41:20;12.55;;;7.35;;
34242;SDS011;20504;43.214;27.920;2022-09-03T05:46:19;15.10;;;7.57;;
34242;SDS011;20504;43.214;27.920;2022-09-03T05:48:45;16.87;;;8.60;;
34242;SDS011;20504;43.214;27.920;2022-09-03T05:51:14;15.00;;;8.20;;
34242;SDS011;20504;43.214;27.920;2022-09-03T05:53:41;12.65;;;7.50;;
34242;SDS011;20504;43.214;27.920;2022-09-03T05:56:15;15.40;;;8.45;;
34242;SDS011;20504;43.214;27.920;2022-09-03T05:58:45;13.10;;;9.00;;
34242;SDS011;20504;43.214;27.920;2022-09-03T06:06:28;16.35;;;9.07;;
34242;SDS011;20504;43.214;27.920;2022-09-03T06:08:58;18.95;;;9.70;;
34242;SDS011;20504;43.214;27.920;2022-09-03T06:11:36;11.82;;;9.27;;
34242;SDS011;20504;43.214;27.920;2022-09-03T06:14:06;22.33;;;9.85;;
34242;SDS011;20504;43.214;27.920;2022-09-03T06:16:34;21.52;;;10.57;;
34242;SDS011;20504;43.214;27.920;2022-09-03T06:19:03;21.48;;;10.60;;
34242;SDS011;20504;43.214;27.920;2022-09-03T06:21:38;16.65;;;9.52;;
34242;SDS011;20504;43.214;27.920;2022-09-03T06:24:07;15.70;;;10.35;;
34242;SDS011;20504;43.214;27.920;2022-09-03T06:26:33;13.77;;;10.20;;
34242;SDS011;20504;43.214;27.920;2022-09-03T06:28:59;17.87;;;10.63;;
34242;SDS011;20504;43.214;27.920;2022-09-03T06:31:24;17.37;;;11.87;;
34242;SDS011;20504;43.214;27.920;2022-09-03T06:33:50;17.08;;;9.95;;
34242;SDS011;20504;43.214;27.920;2022-09-03T06:36:19;18.00;;;10.45;;
34242;SDS011;20504;43.214;27.920;2022-09-03T06:41:14;19.58;;;10.98;;
34242;SDS011;20504;43.214;27.920;2022-09-03T06:43:45;15.52;;;10.30;;
34242;SDS011;20504;43.214;27.920;2022-09-03T06:46:14;15.25;;;9.65;;
34242;SDS011;20504;43.214;27.920;2022-09-03T06:48:43;16.60;;;9.25;;
34242;SDS011;20504;43.214;27.920;2022-09-03T06:51:11;15.68;;;10.13;;
34242;SDS011;20504;43.214;27.920;2022-09-03T06:53:44;15.85;;;9.75;;
34242;SDS011;20504;43.214;27.920;2022-09-03T06:56:13;13.80;;;9.20;;
34242;SDS011;20504;43.214;27.920;2022-09-03T06:58:41;15.68;;;9.63;;
34242;SDS011;20504;43.214;27.920;2022-09-03T07:01:09;19.45;;;9.73;;
34242;SDS011;20504;43.214;27.920;2022-09-03T07:03:37;15.90;;;10.57;;
34242;SDS011;20504;43.214;27.920;2022-09-03T07:06:07;14.20;;;10.35;;
34242;SDS011;20504;43.214;27.920;2022-09-03T07:08:36;17.05;;;10.88;;
34242;SDS011;20504;43.214;27.920;2022-09-03T07:11:02;12.80;;;9.60;;
34242;SDS011;20504;43.214;27.920;2022-09-03T07:13:42;15.30;;;10.65;;
34242;SDS011;20504;43.214;27.920;2022-09-03T07:16:10;13.50;;;10.25;;
34242;SDS011;20504;43.214;27.920;2022-09-03T07:18:38;19.65;;;11.82;;
34242;SDS011;20504;43.214;27.920;2022-09-03T07:23:32;15.68;;;10.82;;
34242;SDS011;20504;43.214;27.920;2022-09-03T07:25:59;12.77;;;10.10;;
34242;SDS011;20504;43.214;27.920;2022-09-03T07:28:26;14.88;;;9.85;;
34242;SDS011;20504;43.214;27.920;2022-09-03T07:30:53;18.38;;;13.27;;
34242;SDS011;20504;43.214;27.920;2022-09-03T07:33:27;13.40;;;10.00;;
34242;SDS011;20504;43.214;27.920;2022-09-03T07:35:53;15.13;;;10.52;;
34242;SDS011;20504;43.214;27.920;2022-09-03T07:38:22;13.90;;;10.67;;
34242;SDS011;20504;43.214;27.920;2022-09-03T07:41:06;21.08;;;11.18;;
34242;SDS011;20504;43.214;27.920;2022-09-03T07:43:37;14.75;;;10.25;;
34242;SDS011;20504;43.214;27.920;2022-09-03T07:46:15;14.82;;;10.73;;
34242;SDS011;20504;43.214;27.920;2022-09-03T07:49:14;14.95;;;10.68;;
34242;SDS011;20504;43.214;27.920;2022-09-03T07:52:11;17.23;;;12.07;;
34242;SDS011;20504;43.214;27.920;2022-09-03T07:55:15;15.82;;;12.18;;
34242;SDS011;20504;43.214;27.920;2022-09-03T07:57:49;19.90;;;12.27;;
34242;SDS011;20504;43.214;27.920;2022-09-03T08:00:39;19.33;;;13.05;;
34242;SDS011;20504;43.214;27.920;2022-09-03T08:03:05;14.90;;;12.18;;
34242;SDS011;20504;43.214;27.920;2022-09-03T08:05:37;17.55;;;12.38;;
34242;SDS011;20504;43.214;27.920;2022-09-03T09:41:10;9.52;;;8.30;;
34242;SDS011;20504;43.214;27.920;2022-09-03T09:43:59;9.68;;;8.63;;
34242;SDS011;20504;43.214;27.920;2022-09-03T09:52:45;10.40;;;7.68;;
34242;SDS011;20504;43.214;27.920;2022-09-03T10:48:06;9.30;;;6.32;;
34242;SDS011;20504;43.214;27.920;2022-09-03T11:00:34;8.73;;;6.18;;
34242;SDS011;20504;43.214;27.920;2022-09-03T11:06:27;13.88;;;6.40;;
34242;SDS011;20504;43.214;27.920;2022-09-03T11:09:23;8.20;;;6.63;;
34242;SDS011;20504;43.214;27.920;2022-09-03T11:12:23;7.70;;;6.18;;
34242;SDS011;20504;43.214;27.920;2022-09-03T11:15:49;9.18;;;6.30;;
34242;SDS011;20504;43.214;27.920;2022-09-03T11:18:32;10.13;;;6.22;;
34242;SDS011;20504;43.214;27.920;2022-09-03T11:21:26;15.57;;;7.18;;
34242;SDS011;20504;43.214;27.920;2022-09-03T11:24:03;8.80;;;5.75;;
34242;SDS011;20504;43.214;27.920;2022-09-03T11:26:56;9.93;;;6.00;;
34242;SDS011;20504;43.214;27.920;2022-09-03T11:29:59;7.93;;;5.72;;
34242;SDS011;20504;43.214;27.920;2022-09-03T11:32:51;6.53;;;5.88;;
34242;SDS011;20504;43.214;27.920;2022-09-03T11:35:41;12.35;;;6.43;;
34242;SDS011;20504;43.214;27.920;2022-09-03T11:41:37;6.60;;;5.43;;
34242;SDS011;20504;43.214;27.920;2022-09-03T11:44:18;6.05;;;5.43;;
34242;SDS011;20504;43.214;27.920;2022-09-03T11:50:16;9.98;;;5.45;;
34242;SDS011;20504;43.214;27.920;2022-09-03T11:59:24;10.05;;;6.05;;
34242;SDS011;20504;43.214;27.920;2022-09-03T12:20:39;8.02;;;6.03;;
34242;SDS011;20504;43.214;27.920;2022-09-03T12:23:11;12.25;;;6.57;;
34242;SDS011;20504;43.214;27.920;2022-09-03T12:25:44;7.65;;;5.93;;
34242;SDS011;20504;43.214;27.920;2022-09-03T12:28:29;6.88;;;5.80;;
34242;SDS011;20504;43.214;27.920;2022-09-03T12:33:51;7.63;;;5.80;;
34242;SDS011;20504;43.214;27.920;2022-09-03T12:36:22;8.20;;;5.70;;
34242;SDS011;20504;43.214;27.920;2022-09-03T12:42:40;6.88;;;4.95;;
34242;SDS011;20504;43.214;27.920;2022-09-03T12:45:13;8.48;;;5.88;;
34242;SDS011;20504;43.214;27.920;2022-09-03T12:48:16;6.57;;;5.53;;
34242;SDS011;20504;43.214;27.920;2022-09-03T12:51:10;6.80;;;4.78;;
34242;SDS011;20504;43.214;27.920;2022-09-03T12:53:48;7.82;;;5.00;;
34242;SDS011;20504;43.214;27.920;2022-09-03T12:56:21;9.25;;;5.00;;
34242;SDS011;20504;43.214;27.920;2022-09-03T12:58:57;7.22;;;5.20;;
34242;SDS011;20504;43.214;27.920;2022-09-03T13:01:34;5.53;;;4.68;;
34242;SDS011;20504;43.214;27.920;2022-09-03T13:04:12;6.15;;;4.82;;
34242;SDS011;20504;43.214;27.920;2022-09-03T13:06:50;5.10;;;4.60;;
34242;SDS011;20504;43.214;27.920;2022-09-03T13:09:28;9.35;;;5.07;;
34242;SDS011;20504;43.214;27.920;2022-09-03T13:11:56;8.48;;;5.00;;
34242;SDS011;20504;43.214;27.920;2022-09-03T13:14:29;7.10;;;4.30;;
34242;SDS011;20504;43.214;27.920;2022-09-03T13:17:29;5.25;;;4.40;;
34242;SDS011;20504;43.214;27.920;2022-09-03T13:26:17;5.72;;;4.97;;
34242;SDS011;20504;43.214;27.920;2022-09-03T13:32:29;10.63;;;5.65;;
34242;SDS011;20504;43.214;27.920;2022-09-03T13:34:52;9.65;;;6.00;;
34242;SDS011;20504;43.214;27.920;2022-09-03T13:37:26;6.30;;;5.55;;
34242;SDS011;20504;43.214;27.920;2022-09-03T13:40:26;8.35;;;5.55;;
34242;SDS011;20504;43.214;27.920;2022-09-03T13:43:46;9.93;;;5.88;;
34242;SDS011;20504;43.214;27.920;2022-09-03T13:49:01;8.57;;;5.57;;
34242;SDS011;20504;43.214;27.920;2022-09-03T13:52:02;10.73;;;5.85;;
34242;SDS011;20504;43.214;27.920;2022-09-03T13:54:44;12.13;;;6.82;;
34242;SDS011;20504;43.214;27.920;2022-09-03T14:00:48;6.97;;;6.28;;
34242;SDS011;20504;43.214;27.920;2022-09-03T14:03:50;8.20;;;6.60;;
34242;SDS011;20504;43.214;27.920;2022-09-03T14:06:42;11.65;;;6.35;;
34242;SDS011;20504;43.214;27.920;2022-09-03T14:10:18;9.03;;;6.10;;
34242;SDS011;20504;43.214;27.920;2022-09-03T14:12:59;7.97;;;5.82;;
34242;SDS011;20504;43.214;27.920;2022-09-03T14:16:03;11.15;;;6.25;;
34242;SDS011;20504;43.214;27.920;2022-09-03T14:19:45;6.93;;;6.00;;
34242;SDS011;20504;43.214;27.920;2022-09-03T14:22:13;8.88;;;5.70;;
34242;SDS011;20504;43.214;27.920;2022-09-03T14:28:39;5.75;;;4.93;;
34242;SDS011;20504;43.214;27.920;2022-09-03T14:41:09;16.33;;;8.95;;
34242;SDS011;20504;43.214;27.920;2022-09-03T14:43:56;8.13;;;4.95;;
34242;SDS011;20504;43.214;27.920;2022-09-03T14:47:05;7.32;;;5.43;;
34242;SDS011;20504;43.214;27.920;2022-09-03T14:52:53;5.70;;;5.10;;
34242;SDS011;20504;43.214;27.920;2022-09-03T15:01:37;5.65;;;4.00;;
34242;SDS011;20504;43.214;27.920;2022-09-03T15:13:11;6.53;;;4.43;;
34242;SDS011;20504;43.214;27.920;2022-09-03T15:21:49;6.15;;;5.55;;
34242;SDS011;20504;43.214;27.920;2022-09-03T15:30:44;7.20;;;6.22;;
34242;SDS011;20504;43.214;27.920;2022-09-03T15:33:53;7.93;;;6.55;;
34242;SDS011;20504;43.214;27.920;2022-09-03T15:36:40;7.45;;;6.57;;
34242;SDS011;20504;43.214;27.920;2022-09-03T15:39:19;7.88;;;6.70;;
34242;SDS011;20504;43.214;27.920;2022-09-03T15:42:20;11.98;;;5.95;;
34242;SDS011;20504;43.214;27.920;2022-09-03T15:44:55;10.65;;;6.10;;
34242;SDS011;20504;43.214;27.920;2022-09-03T15:47:39;7.18;;;6.25;;
34242;SDS011;20504;43.214;27.920;2022-09-03T15:53:02;7.82;;;6.30;;
34242;SDS011;20504;43.214;27.920;2022-09-03T15:59:30;11.70;;;7.30;;
34242;SDS011;20504;43.214;27.920;2022-09-03T16:02:49;9.60;;;6.82;;
34242;SDS011;20504;43.214;27.920;2022-09-03T16:08:42;12.45;;;7.85;;
34242;SDS011;20504;43.214;27.920;2022-09-03T16:14:57;9.43;;;7.60;;
34242;SDS011;20504;43.214;27.920;2022-09-03T16:18:44;10.10;;;7.90;;
34242;SDS011;20504;43.214;27.920;2022-09-03T16:27:14;9.57;;;8.30;;
34242;SDS011;20504;43.214;27.920;2022-09-03T16:33:17;13.65;;;8.35;;
34242;SDS011;20504;43.214;27.920;2022-09-03T16:48:03;11.05;;;7.75;;
34242;SDS011;20504;43.214;27.920;2022-09-03T16:51:19;10.02;;;8.57;;
34242;SDS011;20504;43.214;27.920;2022-09-03T16:54:44;10.77;;;8.80;;
34242;SDS011;20504;43.214;27.920;2022-09-03T17:00:13;13.30;;;8.00;;
34242;SDS011;20504;43.214;27.920;2022-09-03T17:24:04;10.98;;;9.07;;
34242;SDS011;20504;43.214;27.920;2022-09-03T17:27:09;9.70;;;7.50;;
34242;SDS011;20504;43.214;27.920;2022-09-03T17:50:16;8.57;;;7.47;;
34242;SDS011;20504;43.214;27.920;2022-09-03T17:52:59;9.23;;;7.60;;
34242;SDS011;20504;43.214;27.920;2022-09-03T17:56:08;12.05;;;8.60;;
34242;SDS011;20504;43.214;27.920;2022-09-03T18:02:34;10.27;;;7.82;;
34242;SDS011;20504;43.214;27.920;2022-09-03T18:05:29;9.38;;;7.78;;
34242;SDS011;20504;43.214;27.920;2022-09-03T18:08:17;9.55;;;7.75;;
34242;SDS011;20504;43.214;27.920;2022-09-03T18:14:16;11.25;;;8.20;;
34242;SDS011;20504;43.214;27.920;2022-09-03T18:16:53;9.82;;;7.70;;
34242;SDS011;20504;43.214;27.920;2022-09-03T18:22:02;8.73;;;7.88;;
34242;SDS011;20504;43.214;27.920;2022-09-03T18:25:10;9.45;;;7.38;;
34242;SDS011;20504;43.214;27.920;2022-09-03T18:28:04;10.18;;;7.30;;
34242;SDS011;20504;43.214;27.920;2022-09-03T18:30:58;9.10;;;6.68;;
34242;SDS011;20504;43.214;27.920;2022-09-03T18:33:47;8.90;;;7.07;;
34242;SDS011;20504;43.214;27.920;2022-09-03T18:36:32;8.00;;;7.07;;
34242;SDS011;20504;43.214;27.920;2022-09-03T18:39:26;8.65;;;6.00;;
34242;SDS011;20504;43.214;27.920;2022-09-03T18:42:17;9.23;;;6.05;;
34242;SDS011;20504;43.214;27.920;2022-09-03T18:52:03;7.95;;;6.35;;
34242;SDS011;20504;43.214;27.920;2022-09-03T19:21:47;10.40;;;7.90;;
34242;SDS011;20504;43.214;27.920;2022-09-03T19:24:42;9.55;;;7.55;;
34242;SDS011;20504;43.214;27.920;2022-09-03T19:27:34;9.23;;;7.43;;
34242;SDS011;20504;43.214;27.920;2022-09-03T19:30:52;9.35;;;7.68;;
34242;SDS011;20504;43.214;27.920;2022-09-03T19:33:49;10.02;;;7.70;;
34242;SDS011;20504;43.214;27.920;2022-09-03T19:36:57;11.55;;;9.10;;
34242;SDS011;20504;43.214;27.920;2022-09-03T19:52:45;13.98;;;9.32;;
34242;SDS011;20504;43.214;27.920;2022-09-03T19:55:49;12.77;;;9.10;;
34242;SDS011;20504;43.214;27.920;2022-09-03T19:58:40;15.63;;;9.27;;
34242;SDS011;20504;43.214;27.920;2022-09-03T20:01:34;11.48;;;9.02;;
34242;SDS011;20504;43.214;27.920;2022-09-03T20:04:31;15.35;;;8.90;;
34242;SDS011;20504;43.214;27.920;2022-09-03T20:07:28;12.30;;;8.57;;
34242;SDS011;20504;43.214;27.920;2022-09-03T20:10:15;12.50;;;8.82;;
34242;SDS011;20504;43.214;27.920;2022-09-03T20:12:57;17.60;;;8.57;;
34242;SDS011;20504;43.214;27.920;2022-09-03T20:15:29;16.05;;;8.50;;
34242;SDS011;20504;43.214;27.920;2022-09-03T20:21:47;11.38;;;8.95;;
34242;SDS011;20504;43.214;27.920;2022-09-03T20:50:38;10.82;;;7.95;;
34242;SDS011;20504;43.214;27.920;2022-09-03T21:00:01;12.57;;;8.07;;
34242;SDS011;20504;43.214;27.920;2022-09-03T21:14:45;11.02;;;8.00;;
34242;SDS011;20504;43.214;27.920;2022-09-03T21:17:25;12.30;;;7.95;;
34242;SDS011;20504;43.214;27.920;2022-09-03T21:23:04;11.23;;;6.80;;
34242;SDS011;20504;43.214;27.920;2022-09-03T21:31:30;12.55;;;7.07;;
34242;SDS011;20504;43.214;27.920;2022-09-03T21:34:18;10.95;;;6.75;;
34242;SDS011;20504;43.214;27.920;2022-09-03T21:36:49;13.35;;;7.32;;
34242;SDS011;20504;43.214;27.920;2022-09-03T21:39:25;14.00;;;7.68;;
34242;SDS011;20504;43.214;27.920;2022-09-03T21:45:30;18.65;;;6.68;;
34242;SDS011;20504;43.214;27.920;2022-09-03T21:48:16;11.63;;;7.03;;
34242;SDS011;20504;43.214;27.920;2022-09-03T21:50:54;8.07;;;7.28;;
34242;SDS011;20504;43.214;27.920;2022-09-03T22:01:51;10.32;;;6.57;;
34242;SDS011;20504;43.214;27.920;2022-09-03T22:04:47;7.20;;;5.80;;
34242;SDS011;20504;43.214;27.920;2022-09-03T22:10:25;8.93;;;5.57;;
34242;SDS011;20504;43.214;27.920;2022-09-03T22:13:18;10.90;;;6.43;;
34242;SDS011;20504;43.214;27.920;2022-09-03T22:15:59;10.50;;;5.93;;
34242;SDS011;20504;43.214;27.920;2022-09-03T22:18:37;8.00;;;5.00;;
34242;SDS011;20504;43.214;27.920;2022-09-03T22:21:10;15.07;;;6.00;;
34242;SDS011;20504;43.214;27.920;2022-09-03T22:30:16;10.68;;;5.22;;
34242;SDS011;20504;43.214;27.920;2022-09-03T22:33:30;7.25;;;5.40;;
34242;SDS011;20504;43.214;27.920;2022-09-03T22:36:12;10.55;;;5.45;;
34242;SDS011;20504;43.214;27.920;2022-09-03T22:47:45;9.98;;;5.30;;
34242;SDS011;20504;43.214;27.920;2022-09-03T22:56:45;10.88;;;5.32;;
34242;SDS011;20504;43.214;27.920;2022-09-03T23:02:25;12.25;;;5.93;;
34242;SDS011;20504;43.214;27.920;2022-09-03T23:11:24;7.72;;;5.60;;
34242;SDS011;20504;43.214;27.920;2022-09-03T23:14:47;8.98;;;5.63;;
34242;SDS011;20504;43.214;27.920;2022-09-03T23:17:26;7.60;;;5.88;;
34242;SDS011;20504;43.214;27.920;2022-09-03T23:20:08;7.43;;;5.50;;
34242;SDS011;20504;43.214;27.920;2022-09-03T23:22:58;6.63;;;5.90;;
34242;SDS011;20504;43.214;27.920;2022-09-03T23:25:49;9.18;;;6.18;;
34242;SDS011;20504;43.214;27.920;2022-09-03T23:28:44;10.70;;;6.88;;
34242;SDS011;20504;43.214;27.920;2022-09-03T23:31:26;10.82;;;6.55;;
34242;SDS011;20504;43.214;27.920;2022-09-03T23:34:00;9.95;;;6.55;;
34242;SDS011;20504;43.214;27.920;2022-09-03T23:37:04;9.77;;;6.95;;
34242;SDS011;20504;43.214;27.920;2022-09-03T23:40:19;11.55;;;7.43;;
34242;SDS011;20504;43.214;27.920;2022-09-03T23:54:36;11.55;;;8.27;;
34242;SDS011;20504;43.214;27.920;2022-09-03T23:57:59;15.07;;;8.50;;
